sensor_id;sensor_type;location;lat;lon;timestamp;P1;durP1;ratioP1;P2;durP2;ratioP2
20040;SDS011;10181;48.072;9.884;2022-08-19T00:02:04;24.83;;;23.53;;
20040;SDS011;10181;48.072;9.884;2022-08-19T00:04:31;20.47;;;19.40;;
20040;SDS011;10181;48.072;9.884;2022-08-19T00:07:02;20.23;;;19.23;;
20040;SDS011;10181;48.072;9.884;2022-08-19T00:09:29;25.47;;;24.27;;
20040;SDS011;10181;48.072;9.884;2022-08-19T00:11:56;27.83;;;26.37;;
20040;SDS011;10181;48.072;9.884;2022-08-19T00:14:23;28.90;;;27.60;;
20040;SDS011;10181;48.072;9.884;2022-08-19T00:16:50;29.13;;;27.73;;
20040;SDS011;10181;48.072;9.884;2022-08-19T00:19:19;27.30;;;25.87;;
20040;SDS011;10181;48.072;9.884;2022-08-19T00:21:45;23.70;;;22.10;;
20040;SDS011;10181;48.072;9.884;2022-08-19T00:24:12;21.03;;;19.43;;
20040;SDS011;10181;48.072;9.884;2022-08-19T00:26:39;14.70;;;13.60;;
20040;SDS011;10181;48.072;9.884;2022-08-19T00:29:07;14.70;;;13.63;;
20040;SDS011;10181;48.072;9.884;2022-08-19T00:31:35;15.80;;;14.73;;
20040;SDS011;10181;48.072;9.884;2022-08-19T00:34:01;17.10;;;15.90;;
20040;SDS011;10181;48.072;9.884;2022-08-19T00:36:27;17.23;;;16.07;;
20040;SDS011;10181;48.072;9.884;2022-08-19T00:38:54;18.17;;;16.97;;
20040;SDS011;10181;48.072;9.884;2022-08-19T00:41:21;18.67;;;17.43;;
20040;SDS011;10181;48.072;9.884;2022-08-19T00:46:22;21.37;;;20.07;;
20040;SDS011;10181;48.072;9.884;2022-08-19T00:48:48;23.60;;;22.23;;
20040;SDS011;10181;48.072;9.884;2022-08-19T00:51:14;25.07;;;23.53;;
20040;SDS011;10181;48.072;9.884;2022-08-19T00:53:39;35.03;;;33.00;;
20040;SDS011;10181;48.072;9.884;2022-08-19T00:56:05;33.20;;;31.20;;
20040;SDS011;10181;48.072;9.884;2022-08-19T00:58:32;31.90;;;29.93;;
20040;SDS011;10181;48.072;9.884;2022-08-19T01:01:00;41.47;;;38.93;;
20040;SDS011;10181;48.072;9.884;2022-08-19T01:03:27;32.47;;;30.67;;
20040;SDS011;10181;48.072;9.884;2022-08-19T01:05:53;36.87;;;34.97;;
20040;SDS011;10181;48.072;9.884;2022-08-19T01:08:19;39.90;;;37.50;;
20040;SDS011;10181;48.072;9.884;2022-08-19T01:10:52;44.70;;;42.23;;
20040;SDS011;10181;48.072;9.884;2022-08-19T01:13:22;49.93;;;47.10;;
20040;SDS011;10181;48.072;9.884;2022-08-19T01:15:52;47.60;;;44.53;;
20040;SDS011;10181;48.072;9.884;2022-08-19T01:18:23;55.03;;;51.83;;
20040;SDS011;10181;48.072;9.884;2022-08-19T01:20:49;57.50;;;54.10;;
20040;SDS011;10181;48.072;9.884;2022-08-19T01:23:16;59.30;;;55.70;;
20040;SDS011;10181;48.072;9.884;2022-08-19T01:25:49;55.53;;;52.33;;
20040;SDS011;10181;48.072;9.884;2022-08-19T01:28:21;52.40;;;49.17;;
20040;SDS011;10181;48.072;9.884;2022-08-19T01:30:53;55.60;;;52.00;;
20040;SDS011;10181;48.072;9.884;2022-08-19T01:33:20;53.97;;;50.30;;
20040;SDS011;10181;48.072;9.884;2022-08-19T01:35:46;57.10;;;53.53;;
20040;SDS011;10181;48.072;9.884;2022-08-19T01:38:23;69.70;;;65.20;;
20040;SDS011;10181;48.072;9.884;2022-08-19T01:40:51;111.37;;;105.50;;
20040;SDS011;10181;48.072;9.884;2022-08-19T01:43:17;115.33;;;108.97;;
20040;SDS011;10181;48.072;9.884;2022-08-19T01:45:44;110.57;;;104.13;;
20040;SDS011;10181;48.072;9.884;2022-08-19T01:48:11;103.77;;;98.07;;
20040;SDS011;10181;48.072;9.884;2022-08-19T01:50:37;96.60;;;90.73;;
20040;SDS011;10181;48.072;9.884;2022-08-19T01:53:04;89.13;;;83.73;;
20040;SDS011;10181;48.072;9.884;2022-08-19T01:55:35;87.57;;;82.23;;
20040;SDS011;10181;48.072;9.884;2022-08-19T01:58:03;72.63;;;68.07;;
20040;SDS011;10181;48.072;9.884;2022-08-19T02:00:33;52.47;;;48.87;;
20040;SDS011;10181;48.072;9.884;2022-08-19T02:02:59;53.00;;;49.20;;
20040;SDS011;10181;48.072;9.884;2022-08-19T02:05:26;73.00;;;68.50;;
20040;SDS011;10181;48.072;9.884;2022-08-19T02:07:54;87.87;;;82.80;;
20040;SDS011;10181;48.072;9.884;2022-08-19T02:10:23;110.30;;;103.83;;
20040;SDS011;10181;48.072;9.884;2022-08-19T02:12:49;101.67;;;95.90;;
20040;SDS011;10181;48.072;9.884;2022-08-19T02:15:15;100.30;;;94.90;;
20040;SDS011;10181;48.072;9.884;2022-08-19T02:17:43;100.37;;;94.97;;
20040;SDS011;10181;48.072;9.884;2022-08-19T02:20:09;90.60;;;85.80;;
20040;SDS011;10181;48.072;9.884;2022-08-19T02:22:37;83.53;;;78.53;;
20040;SDS011;10181;48.072;9.884;2022-08-19T02:25:06;75.57;;;70.77;;
20040;SDS011;10181;48.072;9.884;2022-08-19T02:27:32;64.83;;;60.67;;
20040;SDS011;10181;48.072;9.884;2022-08-19T02:29:58;55.60;;;51.70;;
20040;SDS011;10181;48.072;9.884;2022-08-19T02:32:25;52.63;;;48.90;;
20040;SDS011;10181;48.072;9.884;2022-08-19T02:34:51;45.80;;;42.40;;
20040;SDS011;10181;48.072;9.884;2022-08-19T02:37:17;42.23;;;38.77;;
20040;SDS011;10181;48.072;9.884;2022-08-19T02:40:01;40.23;;;36.90;;
20040;SDS011;10181;48.072;9.884;2022-08-19T02:42:28;41.47;;;37.97;;
20040;SDS011;10181;48.072;9.884;2022-08-19T02:44:55;45.73;;;41.83;;
20040;SDS011;10181;48.072;9.884;2022-08-19T02:47:20;41.03;;;37.60;;
20040;SDS011;10181;48.072;9.884;2022-08-19T02:49:46;43.27;;;39.87;;
20040;SDS011;10181;48.072;9.884;2022-08-19T02:52:14;45.20;;;41.33;;
20040;SDS011;10181;48.072;9.884;2022-08-19T02:54:40;42.63;;;39.47;;
20040;SDS011;10181;48.072;9.884;2022-08-19T02:57:06;43.03;;;39.70;;
20040;SDS011;10181;48.072;9.884;2022-08-19T02:59:33;42.47;;;39.10;;
20040;SDS011;10181;48.072;9.884;2022-08-19T03:01:59;40.53;;;37.53;;
20040;SDS011;10181;48.072;9.884;2022-08-19T03:04:25;47.70;;;44.17;;
20040;SDS011;10181;48.072;9.884;2022-08-19T03:06:50;44.83;;;41.60;;
20040;SDS011;10181;48.072;9.884;2022-08-19T03:09:17;47.73;;;44.10;;
20040;SDS011;10181;48.072;9.884;2022-08-19T03:11:44;53.20;;;49.30;;
20040;SDS011;10181;48.072;9.884;2022-08-19T03:14:10;64.40;;;59.90;;
20040;SDS011;10181;48.072;9.884;2022-08-19T03:16:40;88.87;;;83.57;;
20040;SDS011;10181;48.072;9.884;2022-08-19T03:19:12;90.60;;;85.43;;
20040;SDS011;10181;48.072;9.884;2022-08-19T03:21:38;83.27;;;78.20;;
20040;SDS011;10181;48.072;9.884;2022-08-19T03:24:06;96.73;;;91.43;;
20040;SDS011;10181;48.072;9.884;2022-08-19T03:26:33;111.83;;;105.53;;
20040;SDS011;10181;48.072;9.884;2022-08-19T03:29:03;148.23;;;139.73;;
20040;SDS011;10181;48.072;9.884;2022-08-19T03:31:29;161.60;;;152.83;;
20040;SDS011;10181;48.072;9.884;2022-08-19T03:33:56;313.20;;;297.30;;
20040;SDS011;10181;48.072;9.884;2022-08-19T03:36:24;387.87;;;368.73;;
20040;SDS011;10181;48.072;9.884;2022-08-19T03:38:52;397.17;;;377.97;;
20040;SDS011;10181;48.072;9.884;2022-08-19T03:41:27;175.77;;;166.30;;
20040;SDS011;10181;48.072;9.884;2022-08-19T03:43:55;72.67;;;67.77;;
20040;SDS011;10181;48.072;9.884;2022-08-19T03:46:23;51.40;;;47.63;;
20040;SDS011;10181;48.072;9.884;2022-08-19T03:48:51;49.20;;;45.50;;
20040;SDS011;10181;48.072;9.884;2022-08-19T03:51:23;60.17;;;56.20;;
20040;SDS011;10181;48.072;9.884;2022-08-19T03:53:52;74.27;;;69.83;;
20040;SDS011;10181;48.072;9.884;2022-08-19T03:56:20;93.03;;;87.73;;
20040;SDS011;10181;48.072;9.884;2022-08-19T03:58:47;65.13;;;61.13;;
20040;SDS011;10181;48.072;9.884;2022-08-19T04:01:14;37.10;;;34.20;;
20040;SDS011;10181;48.072;9.884;2022-08-19T04:03:42;32.33;;;29.57;;
20040;SDS011;10181;48.072;9.884;2022-08-19T04:08:48;21.00;;;19.00;;
20040;SDS011;10181;48.072;9.884;2022-08-19T04:11:17;21.47;;;19.57;;
20040;SDS011;10181;48.072;9.884;2022-08-19T04:13:46;22.30;;;20.50;;
20040;SDS011;10181;48.072;9.884;2022-08-19T04:16:12;22.33;;;20.20;;
20040;SDS011;10181;48.072;9.884;2022-08-19T04:18:39;19.93;;;18.13;;
20040;SDS011;10181;48.072;9.884;2022-08-19T04:21:06;21.00;;;19.07;;
20040;SDS011;10181;48.072;9.884;2022-08-19T04:23:32;19.70;;;17.97;;
20040;SDS011;10181;48.072;9.884;2022-08-19T04:26:00;19.53;;;17.57;;
20040;SDS011;10181;48.072;9.884;2022-08-19T04:28:27;20.27;;;18.03;;
20040;SDS011;10181;48.072;9.884;2022-08-19T04:30:53;20.60;;;18.70;;
20040;SDS011;10181;48.072;9.884;2022-08-19T04:33:21;20.07;;;17.97;;
20040;SDS011;10181;48.072;9.884;2022-08-19T04:35:49;19.47;;;17.47;;
20040;SDS011;10181;48.072;9.884;2022-08-19T04:38:17;24.10;;;18.97;;
20040;SDS011;10181;48.072;9.884;2022-08-19T04:40:45;25.30;;;22.63;;
20040;SDS011;10181;48.072;9.884;2022-08-19T04:43:31;24.83;;;22.33;;
20040;SDS011;10181;48.072;9.884;2022-08-19T04:45:58;29.77;;;24.33;;
20040;SDS011;10181;48.072;9.884;2022-08-19T04:48:29;24.43;;;21.93;;
20040;SDS011;10181;48.072;9.884;2022-08-19T04:50:55;23.30;;;20.93;;
20040;SDS011;10181;48.072;9.884;2022-08-19T04:53:29;28.67;;;22.03;;
20040;SDS011;10181;48.072;9.884;2022-08-19T04:55:57;25.40;;;22.70;;
20040;SDS011;10181;48.072;9.884;2022-08-19T04:58:26;27.30;;;23.97;;
20040;SDS011;10181;48.072;9.884;2022-08-19T05:00:53;24.57;;;21.87;;
20040;SDS011;10181;48.072;9.884;2022-08-19T05:03:19;22.37;;;20.10;;
20040;SDS011;10181;48.072;9.884;2022-08-19T05:05:45;25.37;;;21.53;;
20040;SDS011;10181;48.072;9.884;2022-08-19T05:08:13;28.77;;;22.27;;
20040;SDS011;10181;48.072;9.884;2022-08-19T05:10:44;25.13;;;20.57;;
20040;SDS011;10181;48.072;9.884;2022-08-19T05:13:12;30.83;;;22.63;;
20040;SDS011;10181;48.072;9.884;2022-08-19T05:15:38;31.63;;;26.77;;
20040;SDS011;10181;48.072;9.884;2022-08-19T05:18:04;30.87;;;27.57;;
20040;SDS011;10181;48.072;9.884;2022-08-19T05:20:48;34.10;;;30.57;;
20040;SDS011;10181;48.072;9.884;2022-08-19T05:23:32;33.53;;;29.97;;
20040;SDS011;10181;48.072;9.884;2022-08-19T05:25:58;30.93;;;26.43;;
20040;SDS011;10181;48.072;9.884;2022-08-19T05:28:24;31.20;;;27.70;;
20040;SDS011;10181;48.072;9.884;2022-08-19T05:30:49;23.60;;;21.17;;
20040;SDS011;10181;48.072;9.884;2022-08-19T05:33:16;26.40;;;23.13;;
20040;SDS011;10181;48.072;9.884;2022-08-19T05:35:43;26.67;;;22.10;;
20040;SDS011;10181;48.072;9.884;2022-08-19T05:38:09;25.03;;;19.47;;
20040;SDS011;10181;48.072;9.884;2022-08-19T05:40:36;24.27;;;18.37;;
20040;SDS011;10181;48.072;9.884;2022-08-19T05:43:04;22.57;;;17.23;;
20040;SDS011;10181;48.072;9.884;2022-08-19T05:45:32;26.90;;;19.30;;
20040;SDS011;10181;48.072;9.884;2022-08-19T05:47:58;23.73;;;18.53;;
20040;SDS011;10181;48.072;9.884;2022-08-19T05:50:24;23.13;;;17.37;;
20040;SDS011;10181;48.072;9.884;2022-08-19T05:52:51;24.67;;;17.97;;
20040;SDS011;10181;48.072;9.884;2022-08-19T05:55:17;19.80;;;16.63;;
20040;SDS011;10181;48.072;9.884;2022-08-19T05:57:45;29.70;;;21.30;;
20040;SDS011;10181;48.072;9.884;2022-08-19T06:00:12;33.87;;;29.03;;
20040;SDS011;10181;48.072;9.884;2022-08-19T06:02:39;40.90;;;36.80;;
20040;SDS011;10181;48.072;9.884;2022-08-19T06:05:05;45.43;;;41.53;;
20040;SDS011;10181;48.072;9.884;2022-08-19T06:07:34;47.10;;;42.97;;
20040;SDS011;10181;48.072;9.884;2022-08-19T06:10:01;39.60;;;35.83;;
20040;SDS011;10181;48.072;9.884;2022-08-19T06:12:31;31.77;;;28.47;;
20040;SDS011;10181;48.072;9.884;2022-08-19T06:15:00;35.83;;;32.20;;
20040;SDS011;10181;48.072;9.884;2022-08-19T06:17:34;45.60;;;41.40;;
20040;SDS011;10181;48.072;9.884;2022-08-19T06:20:00;44.73;;;40.13;;
20040;SDS011;10181;48.072;9.884;2022-08-19T06:22:26;41.30;;;36.83;;
20040;SDS011;10181;48.072;9.884;2022-08-19T06:24:53;39.00;;;35.23;;
20040;SDS011;10181;48.072;9.884;2022-08-19T06:27:19;39.60;;;35.97;;
20040;SDS011;10181;48.072;9.884;2022-08-19T06:29:45;35.57;;;31.90;;
20040;SDS011;10181;48.072;9.884;2022-08-19T06:32:12;34.90;;;30.17;;
20040;SDS011;10181;48.072;9.884;2022-08-19T06:34:41;35.33;;;30.10;;
20040;SDS011;10181;48.072;9.884;2022-08-19T06:37:07;31.10;;;27.73;;
20040;SDS011;10181;48.072;9.884;2022-08-19T06:39:35;32.57;;;28.70;;
20040;SDS011;10181;48.072;9.884;2022-08-19T06:42:03;29.57;;;26.63;;
20040;SDS011;10181;48.072;9.884;2022-08-19T06:44:32;27.90;;;24.87;;
20040;SDS011;10181;48.072;9.884;2022-08-19T06:47:05;35.30;;;30.40;;
20040;SDS011;10181;48.072;9.884;2022-08-19T06:49:32;32.83;;;26.83;;
20040;SDS011;10181;48.072;9.884;2022-08-19T06:51:59;32.93;;;28.57;;
20040;SDS011;10181;48.072;9.884;2022-08-19T06:54:25;37.30;;;28.47;;
20040;SDS011;10181;48.072;9.884;2022-08-19T06:56:53;35.07;;;26.07;;
20040;SDS011;10181;48.072;9.884;2022-08-19T06:59:20;41.83;;;29.90;;
20040;SDS011;10181;48.072;9.884;2022-08-19T07:01:52;41.73;;;36.73;;
20040;SDS011;10181;48.072;9.884;2022-08-19T07:04:23;69.57;;;62.63;;
20040;SDS011;10181;48.072;9.884;2022-08-19T07:07:07;86.07;;;78.67;;
20040;SDS011;10181;48.072;9.884;2022-08-19T07:09:37;74.97;;;68.17;;
20040;SDS011;10181;48.072;9.884;2022-08-19T07:12:06;69.20;;;62.20;;
20040;SDS011;10181;48.072;9.884;2022-08-19T07:14:34;63.97;;;57.23;;
20040;SDS011;10181;48.072;9.884;2022-08-19T07:17:02;70.80;;;63.17;;
20040;SDS011;10181;48.072;9.884;2022-08-19T07:19:30;96.83;;;87.83;;
20040;SDS011;10181;48.072;9.884;2022-08-19T07:21:56;102.03;;;93.17;;
20040;SDS011;10181;48.072;9.884;2022-08-19T07:24:23;74.47;;;66.50;;
20040;SDS011;10181;48.072;9.884;2022-08-19T07:26:51;68.90;;;59.13;;
20040;SDS011;10181;48.072;9.884;2022-08-19T07:29:19;66.70;;;54.90;;
20040;SDS011;10181;48.072;9.884;2022-08-19T07:31:47;70.37;;;54.20;;
20040;SDS011;10181;48.072;9.884;2022-08-19T07:34:17;82.23;;;73.73;;
20040;SDS011;10181;48.072;9.884;2022-08-19T07:36:43;94.57;;;84.73;;
20040;SDS011;10181;48.072;9.884;2022-08-19T07:39:17;83.43;;;74.93;;
20040;SDS011;10181;48.072;9.884;2022-08-19T07:41:46;68.57;;;55.33;;
20040;SDS011;10181;48.072;9.884;2022-08-19T07:44:12;57.27;;;49.90;;
20040;SDS011;10181;48.072;9.884;2022-08-19T07:46:40;46.57;;;41.60;;
20040;SDS011;10181;48.072;9.884;2022-08-19T07:49:09;50.53;;;45.77;;
20040;SDS011;10181;48.072;9.884;2022-08-19T07:51:48;52.73;;;47.80;;
20040;SDS011;10181;48.072;9.884;2022-08-19T07:54:17;58.40;;;50.87;;
20040;SDS011;10181;48.072;9.884;2022-08-19T07:56:44;56.40;;;47.93;;
20040;SDS011;10181;48.072;9.884;2022-08-19T07:59:10;58.07;;;50.10;;
20040;SDS011;10181;48.072;9.884;2022-08-19T08:01:36;52.30;;;43.47;;
20040;SDS011;10181;48.072;9.884;2022-08-19T08:04:04;51.53;;;42.73;;
20040;SDS011;10181;48.072;9.884;2022-08-19T08:06:49;59.97;;;42.20;;
20040;SDS011;10181;48.072;9.884;2022-08-19T08:09:35;49.50;;;36.57;;
20040;SDS011;10181;48.072;9.884;2022-08-19T08:12:04;50.07;;;36.33;;
20040;SDS011;10181;48.072;9.884;2022-08-19T08:17:04;46.20;;;34.60;;
20040;SDS011;10181;48.072;9.884;2022-08-19T08:19:31;49.57;;;31.80;;
20040;SDS011;10181;48.072;9.884;2022-08-19T08:21:58;53.37;;;30.40;;
20040;SDS011;10181;48.072;9.884;2022-08-19T08:24:26;51.20;;;30.67;;
20040;SDS011;10181;48.072;9.884;2022-08-19T08:26:53;54.67;;;34.43;;
20040;SDS011;10181;48.072;9.884;2022-08-19T08:29:19;51.97;;;36.33;;
20040;SDS011;10181;48.072;9.884;2022-08-19T08:31:45;49.27;;;37.50;;
20040;SDS011;10181;48.072;9.884;2022-08-19T08:34:13;48.20;;;34.77;;
20040;SDS011;10181;48.072;9.884;2022-08-19T08:36:40;43.03;;;34.23;;
20040;SDS011;10181;48.072;9.884;2022-08-19T08:39:11;53.80;;;39.00;;
20040;SDS011;10181;48.072;9.884;2022-08-19T08:41:43;50.87;;;37.10;;
20040;SDS011;10181;48.072;9.884;2022-08-19T08:44:19;49.27;;;37.20;;
20040;SDS011;10181;48.072;9.884;2022-08-19T08:46:49;60.33;;;38.67;;
20040;SDS011;10181;48.072;9.884;2022-08-19T08:52:07;63.07;;;34.53;;
20040;SDS011;10181;48.072;9.884;2022-08-19T08:54:40;57.43;;;29.57;;
20040;SDS011;10181;48.072;9.884;2022-08-19T08:57:10;54.47;;;28.37;;
20040;SDS011;10181;48.072;9.884;2022-08-19T08:59:43;58.07;;;28.07;;
20040;SDS011;10181;48.072;9.884;2022-08-19T09:02:15;54.57;;;27.33;;
20040;SDS011;10181;48.072;9.884;2022-08-19T09:04:42;61.53;;;29.33;;
20040;SDS011;10181;48.072;9.884;2022-08-19T09:07:25;59.60;;;27.77;;
20040;SDS011;10181;48.072;9.884;2022-08-19T09:10:52;62.67;;;27.90;;
20040;SDS011;10181;48.072;9.884;2022-08-19T09:15:43;52.60;;;26.23;;
20040;SDS011;10181;48.072;9.884;2022-08-19T09:18:13;63.83;;;27.20;;
20040;SDS011;10181;48.072;9.884;2022-08-19T09:20:41;60.27;;;27.80;;
20040;SDS011;10181;48.072;9.884;2022-08-19T09:23:06;59.97;;;27.50;;
20040;SDS011;10181;48.072;9.884;2022-08-19T09:25:33;56.33;;;26.43;;
20040;SDS011;10181;48.072;9.884;2022-08-19T09:27:59;53.33;;;26.70;;
20040;SDS011;10181;48.072;9.884;2022-08-19T09:30:29;59.40;;;28.03;;
20040;SDS011;10181;48.072;9.884;2022-08-19T09:32:56;51.60;;;25.00;;
20040;SDS011;10181;48.072;9.884;2022-08-19T09:35:24;47.63;;;25.27;;
20040;SDS011;10181;48.072;9.884;2022-08-19T09:37:51;42.20;;;23.30;;
20040;SDS011;10181;48.072;9.884;2022-08-19T09:40:17;35.37;;;19.93;;
20040;SDS011;10181;48.072;9.884;2022-08-19T09:42:44;42.83;;;22.73;;
20040;SDS011;10181;48.072;9.884;2022-08-19T09:45:12;44.47;;;22.30;;
20040;SDS011;10181;48.072;9.884;2022-08-19T09:47:42;36.90;;;21.07;;
20040;SDS011;10181;48.072;9.884;2022-08-19T09:50:09;35.23;;;21.53;;
20040;SDS011;10181;48.072;9.884;2022-08-19T09:52:36;41.67;;;21.33;;
20040;SDS011;10181;48.072;9.884;2022-08-19T09:55:03;32.40;;;18.77;;
20040;SDS011;10181;48.072;9.884;2022-08-19T09:57:30;39.70;;;21.87;;
20040;SDS011;10181;48.072;9.884;2022-08-19T09:59:55;32.20;;;20.03;;
20040;SDS011;10181;48.072;9.884;2022-08-19T10:02:21;30.07;;;20.20;;
20040;SDS011;10181;48.072;9.884;2022-08-19T10:04:46;54.07;;;41.77;;
20040;SDS011;10181;48.072;9.884;2022-08-19T10:07:30;29.83;;;20.33;;
20040;SDS011;10181;48.072;9.884;2022-08-19T10:09:56;30.13;;;20.43;;
20040;SDS011;10181;48.072;9.884;2022-08-19T10:12:22;33.87;;;21.33;;
20040;SDS011;10181;48.072;9.884;2022-08-19T10:14:48;29.13;;;22.07;;
20040;SDS011;10181;48.072;9.884;2022-08-19T10:17:16;35.70;;;21.77;;
20040;SDS011;10181;48.072;9.884;2022-08-19T10:19:42;36.87;;;22.93;;
20040;SDS011;10181;48.072;9.884;2022-08-19T10:22:08;31.50;;;21.43;;
20040;SDS011;10181;48.072;9.884;2022-08-19T10:24:36;33.00;;;23.60;;
20040;SDS011;10181;48.072;9.884;2022-08-19T10:27:01;31.53;;;21.00;;
20040;SDS011;10181;48.072;9.884;2022-08-19T10:29:28;26.67;;;18.70;;
20040;SDS011;10181;48.072;9.884;2022-08-19T10:31:54;31.20;;;20.90;;
20040;SDS011;10181;48.072;9.884;2022-08-19T10:34:23;28.73;;;19.73;;
20040;SDS011;10181;48.072;9.884;2022-08-19T10:36:49;26.77;;;19.27;;
20040;SDS011;10181;48.072;9.884;2022-08-19T10:39:15;27.60;;;19.30;;
20040;SDS011;10181;48.072;9.884;2022-08-19T10:41:40;25.77;;;18.20;;
20040;SDS011;10181;48.072;9.884;2022-08-19T10:44:09;26.13;;;21.53;;
20040;SDS011;10181;48.072;9.884;2022-08-19T10:46:37;26.33;;;22.70;;
20040;SDS011;10181;48.072;9.884;2022-08-19T10:49:06;54.43;;;50.27;;
20040;SDS011;10181;48.072;9.884;2022-08-19T10:51:32;79.30;;;74.50;;
20040;SDS011;10181;48.072;9.884;2022-08-19T10:54:16;96.67;;;90.90;;
20040;SDS011;10181;48.072;9.884;2022-08-19T10:56:42;107.50;;;101.37;;
20040;SDS011;10181;48.072;9.884;2022-08-19T10:59:18;121.17;;;114.40;;
20040;SDS011;10181;48.072;9.884;2022-08-19T11:01:47;126.37;;;119.43;;
20040;SDS011;10181;48.072;9.884;2022-08-19T11:04:14;129.53;;;122.63;;
20040;SDS011;10181;48.072;9.884;2022-08-19T11:06:42;78.33;;;73.80;;
20040;SDS011;10181;48.072;9.884;2022-08-19T11:09:12;77.80;;;73.10;;
20040;SDS011;10181;48.072;9.884;2022-08-19T11:11:42;92.97;;;87.50;;
20040;SDS011;10181;48.072;9.884;2022-08-19T11:14:12;104.97;;;99.27;;
20040;SDS011;10181;48.072;9.884;2022-08-19T11:16:39;101.43;;;96.17;;
20040;SDS011;10181;48.072;9.884;2022-08-19T11:19:07;102.30;;;96.97;;
20040;SDS011;10181;48.072;9.884;2022-08-19T11:21:36;97.17;;;91.77;;
20040;SDS011;10181;48.072;9.884;2022-08-19T11:24:05;99.93;;;94.43;;
20040;SDS011;10181;48.072;9.884;2022-08-19T11:26:35;76.70;;;72.03;;
20040;SDS011;10181;48.072;9.884;2022-08-19T11:29:02;66.90;;;62.93;;
20040;SDS011;10181;48.072;9.884;2022-08-19T11:31:30;63.27;;;59.70;;
20040;SDS011;10181;48.072;9.884;2022-08-19T11:33:57;65.67;;;61.67;;
20040;SDS011;10181;48.072;9.884;2022-08-19T11:36:25;42.97;;;40.17;;
20040;SDS011;10181;48.072;9.884;2022-08-19T11:38:51;45.23;;;42.17;;
20040;SDS011;10181;48.072;9.884;2022-08-19T11:41:18;39.63;;;36.90;;
20040;SDS011;10181;48.072;9.884;2022-08-19T11:43:45;39.80;;;37.07;;
20040;SDS011;10181;48.072;9.884;2022-08-19T11:46:12;33.43;;;31.17;;
20040;SDS011;10181;48.072;9.884;2022-08-19T11:48:40;37.70;;;35.00;;
20040;SDS011;10181;48.072;9.884;2022-08-19T11:51:07;35.23;;;32.70;;
20040;SDS011;10181;48.072;9.884;2022-08-19T11:53:35;31.07;;;28.47;;
20040;SDS011;10181;48.072;9.884;2022-08-19T11:56:02;33.30;;;30.77;;
20040;SDS011;10181;48.072;9.884;2022-08-19T11:58:28;50.30;;;46.00;;
20040;SDS011;10181;48.072;9.884;2022-08-19T12:00:55;28.60;;;26.10;;
20040;SDS011;10181;48.072;9.884;2022-08-19T12:03:21;24.50;;;22.13;;
20040;SDS011;10181;48.072;9.884;2022-08-19T12:05:47;29.53;;;27.10;;
20040;SDS011;10181;48.072;9.884;2022-08-19T12:08:13;22.43;;;20.63;;
20040;SDS011;10181;48.072;9.884;2022-08-19T12:10:40;18.43;;;16.83;;
20040;SDS011;10181;48.072;9.884;2022-08-19T12:13:07;20.37;;;18.57;;
20040;SDS011;10181;48.072;9.884;2022-08-19T12:15:37;18.73;;;16.93;;
20040;SDS011;10181;48.072;9.884;2022-08-19T12:18:06;15.47;;;13.67;;
20040;SDS011;10181;48.072;9.884;2022-08-19T12:20:36;15.83;;;12.83;;
20040;SDS011;10181;48.072;9.884;2022-08-19T12:23:04;19.83;;;13.70;;
20040;SDS011;10181;48.072;9.884;2022-08-19T12:25:32;12.70;;;11.37;;
20040;SDS011;10181;48.072;9.884;2022-08-19T12:27:59;11.77;;;10.27;;
20040;SDS011;10181;48.072;9.884;2022-08-19T12:30:25;16.27;;;12.50;;
20040;SDS011;10181;48.072;9.884;2022-08-19T12:32:51;17.70;;;14.17;;
20040;SDS011;10181;48.072;9.884;2022-08-19T12:35:17;16.20;;;13.07;;
20040;SDS011;10181;48.072;9.884;2022-08-19T12:37:45;19.87;;;14.50;;
20040;SDS011;10181;48.072;9.884;2022-08-19T12:40:12;15.10;;;13.50;;
20040;SDS011;10181;48.072;9.884;2022-08-19T12:42:40;19.60;;;15.33;;
20040;SDS011;10181;48.072;9.884;2022-08-19T12:45:07;15.37;;;13.80;;
20040;SDS011;10181;48.072;9.884;2022-08-19T12:47:34;20.13;;;17.37;;
20040;SDS011;10181;48.072;9.884;2022-08-19T12:50:00;19.77;;;17.67;;
20040;SDS011;10181;48.072;9.884;2022-08-19T12:52:26;29.73;;;26.97;;
20040;SDS011;10181;48.072;9.884;2022-08-19T12:54:53;34.50;;;31.50;;
20040;SDS011;10181;48.072;9.884;2022-08-19T12:57:20;36.13;;;33.30;;
20040;SDS011;10181;48.072;9.884;2022-08-19T12:59:53;34.10;;;31.67;;
20040;SDS011;10181;48.072;9.884;2022-08-19T13:02:19;34.40;;;31.40;;
20040;SDS011;10181;48.072;9.884;2022-08-19T13:04:46;31.47;;;28.87;;
20040;SDS011;10181;48.072;9.884;2022-08-19T13:07:12;29.10;;;26.60;;
20040;SDS011;10181;48.072;9.884;2022-08-19T13:09:37;28.70;;;26.00;;
20040;SDS011;10181;48.072;9.884;2022-08-19T13:12:06;27.03;;;24.33;;
20040;SDS011;10181;48.072;9.884;2022-08-19T13:14:37;27.93;;;25.10;;
20040;SDS011;10181;48.072;9.884;2022-08-19T13:17:03;26.10;;;23.43;;
20040;SDS011;10181;48.072;9.884;2022-08-19T13:19:29;28.53;;;24.33;;
20040;SDS011;10181;48.072;9.884;2022-08-19T13:21:56;33.53;;;30.47;;
20040;SDS011;10181;48.072;9.884;2022-08-19T13:24:22;54.13;;;50.33;;
20040;SDS011;10181;48.072;9.884;2022-08-19T13:26:48;61.13;;;56.67;;
20040;SDS011;10181;48.072;9.884;2022-08-19T13:29:14;51.33;;;47.93;;
20040;SDS011;10181;48.072;9.884;2022-08-19T13:31:58;46.80;;;42.93;;
20040;SDS011;10181;48.072;9.884;2022-08-19T13:34:42;31.00;;;28.23;;
20040;SDS011;10181;48.072;9.884;2022-08-19T13:37:08;19.63;;;17.40;;
20040;SDS011;10181;48.072;9.884;2022-08-19T13:39:34;13.87;;;12.57;;
20040;SDS011;10181;48.072;9.884;2022-08-19T13:42:01;13.93;;;12.53;;
20040;SDS011;10181;48.072;9.884;2022-08-19T13:44:29;11.97;;;10.87;;
20040;SDS011;10181;48.072;9.884;2022-08-19T13:46:55;13.80;;;12.40;;
20040;SDS011;10181;48.072;9.884;2022-08-19T13:49:30;11.00;;;9.90;;
20040;SDS011;10181;48.072;9.884;2022-08-19T13:51:56;11.37;;;10.37;;
20040;SDS011;10181;48.072;9.884;2022-08-19T13:54:22;11.10;;;10.00;;
20040;SDS011;10181;48.072;9.884;2022-08-19T13:56:48;12.00;;;10.90;;
20040;SDS011;10181;48.072;9.884;2022-08-19T13:59:13;11.23;;;10.33;;
20040;SDS011;10181;48.072;9.884;2022-08-19T14:01:40;11.23;;;10.27;;
20040;SDS011;10181;48.072;9.884;2022-08-19T14:04:06;12.57;;;11.50;;
20040;SDS011;10181;48.072;9.884;2022-08-19T14:06:32;11.90;;;10.97;;
20040;SDS011;10181;48.072;9.884;2022-08-19T14:08:58;11.37;;;10.37;;
20040;SDS011;10181;48.072;9.884;2022-08-19T14:11:24;12.17;;;11.13;;
20040;SDS011;10181;48.072;9.884;2022-08-19T14:13:50;13.13;;;11.93;;
20040;SDS011;10181;48.072;9.884;2022-08-19T14:16:16;14.23;;;12.87;;
20040;SDS011;10181;48.072;9.884;2022-08-19T14:18:42;14.57;;;13.03;;
20040;SDS011;10181;48.072;9.884;2022-08-19T14:21:08;14.23;;;12.73;;
20040;SDS011;10181;48.072;9.884;2022-08-19T14:23:40;18.53;;;16.77;;
20040;SDS011;10181;48.072;9.884;2022-08-19T14:26:10;26.77;;;24.77;;
20040;SDS011;10181;48.072;9.884;2022-08-19T14:28:39;30.03;;;28.03;;
20040;SDS011;10181;48.072;9.884;2022-08-19T14:31:09;28.73;;;26.47;;
20040;SDS011;10181;48.072;9.884;2022-08-19T14:33:37;32.83;;;30.20;;
20040;SDS011;10181;48.072;9.884;2022-08-19T14:36:03;33.67;;;31.20;;
20040;SDS011;10181;48.072;9.884;2022-08-19T14:38:29;30.40;;;28.27;;
20040;SDS011;10181;48.072;9.884;2022-08-19T14:41:04;26.70;;;24.77;;